Impacts TAF Board INFO
FOR SITUATIONAL AWARENESS. NOT TO BE USED FOR FLIGHT PLANNING PURPOSES.
IDs:

KCLE - Cleveland/Hopkins In, OH, US

Issued at 2327 UTC 11 Dec 2017
Updated at 0219 UTC 12 Dec 2017
Potential Impact None Slight Moderate High
Time0151Z 12/03Z 12/04Z 12/05Z 12/06Z 12/07Z 12/08Z 12/09Z 12/10Z 12/11Z 12/12Z 12/13Z 12/14Z 12/15Z>>
Type OBS PRVL
  [TEMP]  
PRVL
  [TEMP]  
PRVL
  [TEMP]  
PRVL PRVL PRVL PRVL PRVL PRVL PRVL PRVL PRVL PRVL
VIS 10 6
  [3]  
6
  [3]  
6
  [3]  
1.5 1.5 1.5 1.5 1.5 2 2 2 5 5
CIG 75 60
  [25]  
60
  [25]  
60
  [25]  
15 15 15 15 15 15 15 15 20 20
Cover OVC OVC
  [BKN]  
OVC
  [BKN]  
OVC
  [BKN]  
OVC OVC OVC OVC OVC OVC OVC OVC OVC OVC
FltCat VFR VFR
  [MVFR]  
VFR
  [MVFR]  
VFR
  [MVFR]  
IFR IFR IFR IFR IFR IFR IFR IFR MVFR MVFR
WX -- -SN
  [-SN]  
-SN
  [-SN]  
-SN
  [-SN]  
-SN -SN -SN -SN -SN -SHSN -SHSN -SHSN -SHSN -SHSN
WDir 170 190
[190]
190
[190]
190
[190]
VRB VRB VRB VRB VRB 300 300 300 300 300
WSpd 7 8
  [8]  
8
  [8]  
8
  [8]  
5 5 5 5 5 20 20 20 22 22
WGst -- --
  [--]  
--
  [--]  
--
  [--]  
-- -- -- -- -- 30 30 30 32 32

Raw TAF
KCLE 112327Z 1200/1306 17005KT P6SM SCT050 BKN150
  FM120300 19008KT 6SM -SN SCT035 OVC060
  TEMPO 1203/1206 3SM -SN BKN025
  FM120600 VRB05KT 1 1/2SM -SN SCT008 OVC015
  FM121100 30020G30KT 2SM -SHSN OVC015
  FM121400 30022G32KT 5SM -SHSN OVC020


Raw METAR
KCLE 120151Z 17007KT 10SM BKN075 OVC120 01/M04 A2974 RMK AO2 SLP078 T00111044
KCLE 120051Z 17007KT 10SM SCT075 OVC120 00/M04 A2977 RMK AO2 SLP088 T00001039
KCLE 112351Z 17008KT 10SM BKN065 OVC150 00/M04 A2979 RMK AO2 SLP097 60001 T00001039 10000 21011 56029

METAR Board
Radar Display
Forecast Discussion

FOR SITUATIONAL AWARENESS. NOT TO BE USED FOR FLIGHT PLANNING PURPOSES.